sensor_id;sensor_type;location;lat;lon;timestamp;temperature;humidity
18252;DHT22;26917;52.328;20.878;2023-02-01T00:01:32;3.00;99.90
18252;DHT22;26917;52.328;20.878;2023-02-01T00:04:01;2.90;99.90
18252;DHT22;26917;52.328;20.878;2023-02-01T00:06:32;3.00;99.90
18252;DHT22;26917;52.328;20.878;2023-02-01T00:09:01;3.10;99.90
18252;DHT22;26917;52.328;20.878;2023-02-01T00:11:29;3.20;99.90
18252;DHT22;26917;52.328;20.878;2023-02-01T00:14:17;3.10;99.90
18252;DHT22;26917;52.328;20.878;2023-02-01T00:16:47;3.00;99.90
18252;DHT22;26917;52.328;20.878;2023-02-01T00:19:16;3.30;99.90
18252;DHT22;26917;52.328;20.878;2023-02-01T00:21:47;3.00;99.90
18252;DHT22;26917;52.328;20.878;2023-02-01T00:24:15;3.20;99.90
18252;DHT22;26917;52.328;20.878;2023-02-01T00:27:04;3.10;99.90
18252;DHT22;26917;52.328;20.878;2023-02-01T00:29:47;3.10;99.90
18252;DHT22;26917;52.328;20.878;2023-02-01T00:32:20;3.00;99.90
18252;DHT22;26917;52.328;20.878;2023-02-01T00:34:59;3.40;99.90
18252;DHT22;26917;52.328;20.878;2023-02-01T00:37:29;3.00;99.90
18252;DHT22;26917;52.328;20.878;2023-02-01T00:40:10;3.10;99.90
18252;DHT22;26917;52.328;20.878;2023-02-01T00:42:41;3.20;99.90
18252;DHT22;26917;52.328;20.878;2023-02-01T00:45:13;3.60;99.90
18252;DHT22;26917;52.328;20.878;2023-02-01T00:47:44;3.10;99.90
18252;DHT22;26917;52.328;20.878;2023-02-01T00:50:16;3.10;99.90
18252;DHT22;26917;52.328;20.878;2023-02-01T00:52:45;3.10;99.90
18252;DHT22;26917;52.328;20.878;2023-02-01T00:55:14;3.20;99.90
18252;DHT22;26917;52.328;20.878;2023-02-01T00:57:47;3.00;99.90
18252;DHT22;26917;52.328;20.878;2023-02-01T01:00:17;3.10;99.90
18252;DHT22;26917;52.328;20.878;2023-02-01T01:02:50;3.00;99.90
18252;DHT22;26917;52.328;20.878;2023-02-01T01:05:19;2.90;99.90
18252;DHT22;26917;52.328;20.878;2023-02-01T01:07:48;2.90;99.90
18252;DHT22;26917;52.328;20.878;2023-02-01T01:10:16;2.90;99.90
18252;DHT22;26917;52.328;20.878;2023-02-01T01:12:45;2.80;99.90
18252;DHT22;26917;52.328;20.878;2023-02-01T01:15:14;2.80;99.90
18252;DHT22;26917;52.328;20.878;2023-02-01T01:17:42;2.80;99.90
18252;DHT22;26917;52.328;20.878;2023-02-01T01:20:12;3.00;99.90
18252;DHT22;26917;52.328;20.878;2023-02-01T01:22:41;3.20;99.90
18252;DHT22;26917;52.328;20.878;2023-02-01T01:25:09;2.90;99.90
18252;DHT22;26917;52.328;20.878;2023-02-01T01:27:37;3.20;99.90
18252;DHT22;26917;52.328;20.878;2023-02-01T01:30:09;2.60;99.90
18252;DHT22;26917;52.328;20.878;2023-02-01T01:32:37;2.60;99.90
18252;DHT22;26917;52.328;20.878;2023-02-01T01:35:08;2.70;99.90
18252;DHT22;26917;52.328;20.878;2023-02-01T01:37:38;2.60;99.90
18252;DHT22;26917;52.328;20.878;2023-02-01T01:40:08;2.70;99.90
18252;DHT22;26917;52.328;20.878;2023-02-01T01:42:37;2.60;99.90
18252;DHT22;26917;52.328;20.878;2023-02-01T01:45:21;2.50;99.90
18252;DHT22;26917;52.328;20.878;2023-02-01T01:47:53;2.50;99.90
18252;DHT22;26917;52.328;20.878;2023-02-01T01:50:26;2.90;99.90
18252;DHT22;26917;52.328;20.878;2023-02-01T01:52:58;2.60;99.90
18252;DHT22;26917;52.328;20.878;2023-02-01T01:55:31;2.60;99.90
18252;DHT22;26917;52.328;20.878;2023-02-01T01:58:04;2.60;99.90
18252;DHT22;26917;52.328;20.878;2023-02-01T02:00:33;3.20;99.90
18252;DHT22;26917;52.328;20.878;2023-02-01T02:03:08;2.70;99.90
18252;DHT22;26917;52.328;20.878;2023-02-01T02:05:39;2.90;99.90
18252;DHT22;26917;52.328;20.878;2023-02-01T02:08:10;3.10;99.90
18252;DHT22;26917;52.328;20.878;2023-02-01T02:10:38;3.00;99.90
18252;DHT22;26917;52.328;20.878;2023-02-01T02:13:28;3.00;99.90
18252;DHT22;26917;52.328;20.878;2023-02-01T02:16:17;2.70;99.90
18252;DHT22;26917;52.328;20.878;2023-02-01T02:18:55;2.60;99.90
18252;DHT22;26917;52.328;20.878;2023-02-01T02:21:41;2.60;99.90
18252;DHT22;26917;52.328;20.878;2023-02-01T02:24:34;2.80;99.90
18252;DHT22;26917;52.328;20.878;2023-02-01T02:27:21;2.60;99.90
18252;DHT22;26917;52.328;20.878;2023-02-01T02:36:23;2.70;99.90
18252;DHT22;26917;52.328;20.878;2023-02-01T02:39:06;2.70;99.90
18252;DHT22;26917;52.328;20.878;2023-02-01T02:41:45;2.80;99.90
18252;DHT22;26917;52.328;20.878;2023-02-01T02:44:41;3.20;99.90
18252;DHT22;26917;52.328;20.878;2023-02-01T02:47:34;2.70;99.90
18252;DHT22;26917;52.328;20.878;2023-02-01T02:50:19;2.80;99.90
18252;DHT22;26917;52.328;20.878;2023-02-01T02:53:12;2.70;99.90
18252;DHT22;26917;52.328;20.878;2023-02-01T02:56:02;2.60;99.90
18252;DHT22;26917;52.328;20.878;2023-02-01T02:58:50;2.70;99.90
18252;DHT22;26917;52.328;20.878;2023-02-01T03:01:36;2.70;99.90
18252;DHT22;26917;52.328;20.878;2023-02-01T03:04:23;2.70;99.90
18252;DHT22;26917;52.328;20.878;2023-02-01T03:06:53;2.70;99.90
18252;DHT22;26917;52.328;20.878;2023-02-01T03:09:27;2.70;99.90
18252;DHT22;26917;52.328;20.878;2023-02-01T03:12:01;3.00;99.90
18252;DHT22;26917;52.328;20.878;2023-02-01T03:14:47;2.70;99.90
18252;DHT22;26917;52.328;20.878;2023-02-01T03:17:21;2.70;99.90
18252;DHT22;26917;52.328;20.878;2023-02-01T03:19:52;2.60;99.90
18252;DHT22;26917;52.328;20.878;2023-02-01T03:22:22;2.50;99.90
18252;DHT22;26917;52.328;20.878;2023-02-01T03:24:54;2.80;99.90
18252;DHT22;26917;52.328;20.878;2023-02-01T03:27:26;2.90;99.90
18252;DHT22;26917;52.328;20.878;2023-02-01T03:30:01;2.70;99.90
18252;DHT22;26917;52.328;20.878;2023-02-01T03:32:33;2.50;99.90
18252;DHT22;26917;52.328;20.878;2023-02-01T03:35:28;2.50;99.90
18252;DHT22;26917;52.328;20.878;2023-02-01T03:38:02;2.40;99.90
18252;DHT22;26917;52.328;20.878;2023-02-01T03:40:39;2.70;99.90
18252;DHT22;26917;52.328;20.878;2023-02-01T03:43:14;2.40;99.90
18252;DHT22;26917;52.328;20.878;2023-02-01T03:45:49;2.30;99.90
18252;DHT22;26917;52.328;20.878;2023-02-01T03:48:18;2.30;99.90
18252;DHT22;26917;52.328;20.878;2023-02-01T03:50:50;2.40;99.90
18252;DHT22;26917;52.328;20.878;2023-02-01T03:53:23;2.70;99.90
18252;DHT22;26917;52.328;20.878;2023-02-01T03:55:55;2.90;99.90
18252;DHT22;26917;52.328;20.878;2023-02-01T03:58:24;2.30;99.90
18252;DHT22;26917;52.328;20.878;2023-02-01T04:00:55;2.20;99.90
18252;DHT22;26917;52.328;20.878;2023-02-01T04:03:25;2.30;99.90
18252;DHT22;26917;52.328;20.878;2023-02-01T04:05:54;2.30;99.90
18252;DHT22;26917;52.328;20.878;2023-02-01T04:08:26;2.30;99.90
18252;DHT22;26917;52.328;20.878;2023-02-01T04:10:56;2.30;99.90
18252;DHT22;26917;52.328;20.878;2023-02-01T04:13:34;2.30;99.90
18252;DHT22;26917;52.328;20.878;2023-02-01T04:16:02;2.30;99.90
18252;DHT22;26917;52.328;20.878;2023-02-01T04:18:30;2.30;99.90
18252;DHT22;26917;52.328;20.878;2023-02-01T04:20:59;2.30;99.90
18252;DHT22;26917;52.328;20.878;2023-02-01T04:23:28;2.40;99.90
18252;DHT22;26917;52.328;20.878;2023-02-01T04:26:00;2.40;99.90
18252;DHT22;26917;52.328;20.878;2023-02-01T04:28:29;2.50;99.90
18252;DHT22;26917;52.328;20.878;2023-02-01T04:30:57;2.70;99.90
18252;DHT22;26917;52.328;20.878;2023-02-01T04:33:26;2.40;99.90
18252;DHT22;26917;52.328;20.878;2023-02-01T04:35:54;2.40;99.90
18252;DHT22;26917;52.328;20.878;2023-02-01T04:38:23;2.50;99.90
18252;DHT22;26917;52.328;20.878;2023-02-01T04:40:52;2.50;99.90
18252;DHT22;26917;52.328;20.878;2023-02-01T04:43:22;2.50;99.90
18252;DHT22;26917;52.328;20.878;2023-02-01T04:45:51;2.60;99.90
18252;DHT22;26917;52.328;20.878;2023-02-01T04:48:20;2.60;99.90
18252;DHT22;26917;52.328;20.878;2023-02-01T04:50:51;2.50;99.90
18252;DHT22;26917;52.328;20.878;2023-02-01T04:53:19;2.50;99.90
18252;DHT22;26917;52.328;20.878;2023-02-01T04:55:48;2.50;99.90
18252;DHT22;26917;52.328;20.878;2023-02-01T04:58:17;2.60;99.90
18252;DHT22;26917;52.328;20.878;2023-02-01T05:00:47;2.70;99.90
18252;DHT22;26917;52.328;20.878;2023-02-01T05:03:16;2.60;99.90
18252;DHT22;26917;52.328;20.878;2023-02-01T05:05:44;2.60;99.90
18252;DHT22;26917;52.328;20.878;2023-02-01T05:08:14;2.80;99.90
18252;DHT22;26917;52.328;20.878;2023-02-01T05:10:44;2.80;99.90
18252;DHT22;26917;52.328;20.878;2023-02-01T05:13:13;2.60;99.90
18252;DHT22;26917;52.328;20.878;2023-02-01T05:15:59;2.70;99.90
18252;DHT22;26917;52.328;20.878;2023-02-01T05:18:27;2.60;99.90
18252;DHT22;26917;52.328;20.878;2023-02-01T05:20:59;2.60;99.90
18252;DHT22;26917;52.328;20.878;2023-02-01T05:23:27;2.60;99.90
18252;DHT22;26917;52.328;20.878;2023-02-01T05:25:58;2.50;99.90
18252;DHT22;26917;52.328;20.878;2023-02-01T05:28:28;3.40;99.90
18252;DHT22;26917;52.328;20.878;2023-02-01T05:30:56;2.60;99.90
18252;DHT22;26917;52.328;20.878;2023-02-01T05:33:26;2.70;99.90
18252;DHT22;26917;52.328;20.878;2023-02-01T05:35:54;2.80;99.90
18252;DHT22;26917;52.328;20.878;2023-02-01T05:38:22;2.60;99.90
18252;DHT22;26917;52.328;20.878;2023-02-01T05:40:51;2.60;99.90
18252;DHT22;26917;52.328;20.878;2023-02-01T05:43:20;2.90;99.90
18252;DHT22;26917;52.328;20.878;2023-02-01T05:45:48;2.60;99.90
18252;DHT22;26917;52.328;20.878;2023-02-01T05:48:19;2.70;99.90
18252;DHT22;26917;52.328;20.878;2023-02-01T05:50:49;2.70;99.90
18252;DHT22;26917;52.328;20.878;2023-02-01T05:53:17;2.70;99.90
18252;DHT22;26917;52.328;20.878;2023-02-01T05:55:45;2.80;99.90
18252;DHT22;26917;52.328;20.878;2023-02-01T05:58:13;2.80;99.90
18252;DHT22;26917;52.328;20.878;2023-02-01T06:00:42;3.10;99.90
18252;DHT22;26917;52.328;20.878;2023-02-01T06:03:10;2.70;99.90
18252;DHT22;26917;52.328;20.878;2023-02-01T06:05:38;2.80;99.90
18252;DHT22;26917;52.328;20.878;2023-02-01T06:08:08;2.80;99.90
18252;DHT22;26917;52.328;20.878;2023-02-01T06:10:36;2.80;99.90
18252;DHT22;26917;52.328;20.878;2023-02-01T06:13:05;2.80;99.90
18252;DHT22;26917;52.328;20.878;2023-02-01T06:15:34;2.90;99.90
18252;DHT22;26917;52.328;20.878;2023-02-01T06:18:04;3.40;99.90
18252;DHT22;26917;52.328;20.878;2023-02-01T06:20:32;2.90;99.90
18252;DHT22;26917;52.328;20.878;2023-02-01T06:23:01;2.90;99.90
18252;DHT22;26917;52.328;20.878;2023-02-01T06:25:30;2.90;99.90
18252;DHT22;26917;52.328;20.878;2023-02-01T06:28:00;2.90;99.90
18252;DHT22;26917;52.328;20.878;2023-02-01T06:30:28;2.90;99.90
18252;DHT22;26917;52.328;20.878;2023-02-01T06:32:57;2.90;99.90
18252;DHT22;26917;52.328;20.878;2023-02-01T06:35:25;3.00;99.90
18252;DHT22;26917;52.328;20.878;2023-02-01T06:37:54;3.10;99.90
18252;DHT22;26917;52.328;20.878;2023-02-01T06:40:24;2.80;99.90
18252;DHT22;26917;52.328;20.878;2023-02-01T06:42:54;2.90;99.90
18252;DHT22;26917;52.328;20.878;2023-02-01T06:45:22;3.00;99.90
18252;DHT22;26917;52.328;20.878;2023-02-01T06:47:51;3.20;99.90
18252;DHT22;26917;52.328;20.878;2023-02-01T06:50:19;3.30;99.90
18252;DHT22;26917;52.328;20.878;2023-02-01T06:52:59;3.00;99.90
18252;DHT22;26917;52.328;20.878;2023-02-01T06:55:54;3.00;99.90
18252;DHT22;26917;52.328;20.878;2023-02-01T06:58:27;3.00;99.90
18252;DHT22;26917;52.328;20.878;2023-02-01T07:00:55;3.10;99.90
18252;DHT22;26917;52.328;20.878;2023-02-01T07:03:24;3.20;99.90
18252;DHT22;26917;52.328;20.878;2023-02-01T07:05:55;3.40;99.90
18252;DHT22;26917;52.328;20.878;2023-02-01T07:08:26;3.00;99.90
18252;DHT22;26917;52.328;20.878;2023-02-01T07:11:01;3.00;99.90
18252;DHT22;26917;52.328;20.878;2023-02-01T07:13:32;3.30;99.90
18252;DHT22;26917;52.328;20.878;2023-02-01T07:16:01;3.70;99.90
18252;DHT22;26917;52.328;20.878;2023-02-01T07:18:31;3.30;99.90
18252;DHT22;26917;52.328;20.878;2023-02-01T07:21:00;3.00;99.90
18252;DHT22;26917;52.328;20.878;2023-02-01T07:23:29;3.00;99.90
18252;DHT22;26917;52.328;20.878;2023-02-01T07:25:58;3.00;99.90
18252;DHT22;26917;52.328;20.878;2023-02-01T07:28:29;3.00;99.90
18252;DHT22;26917;52.328;20.878;2023-02-01T07:31:03;2.90;99.90
18252;DHT22;26917;52.328;20.878;2023-02-01T07:33:32;2.90;99.90
18252;DHT22;26917;52.328;20.878;2023-02-01T07:36:01;2.90;99.90
18252;DHT22;26917;52.328;20.878;2023-02-01T07:38:31;2.90;99.90
18252;DHT22;26917;52.328;20.878;2023-02-01T07:41:00;3.40;99.90
18252;DHT22;26917;52.328;20.878;2023-02-01T07:43:29;2.90;99.90
18252;DHT22;26917;52.328;20.878;2023-02-01T07:45:58;2.80;99.90
18252;DHT22;26917;52.328;20.878;2023-02-01T07:48:28;2.80;99.90
18252;DHT22;26917;52.328;20.878;2023-02-01T07:50:57;2.80;99.90
18252;DHT22;26917;52.328;20.878;2023-02-01T07:53:26;2.80;99.90
18252;DHT22;26917;52.328;20.878;2023-02-01T07:55:56;2.90;99.90
18252;DHT22;26917;52.328;20.878;2023-02-01T07:58:25;2.80;99.90
18252;DHT22;26917;52.328;20.878;2023-02-01T08:00:54;2.80;99.90
18252;DHT22;26917;52.328;20.878;2023-02-01T08:03:42;2.70;99.90
18252;DHT22;26917;52.328;20.878;2023-02-01T08:06:10;2.80;99.90
18252;DHT22;26917;52.328;20.878;2023-02-01T08:08:38;2.70;99.90
18252;DHT22;26917;52.328;20.878;2023-02-01T08:11:07;2.80;99.90
18252;DHT22;26917;52.328;20.878;2023-02-01T08:13:35;2.70;99.90
18252;DHT22;26917;52.328;20.878;2023-02-01T08:16:05;2.80;99.90
18252;DHT22;26917;52.328;20.878;2023-02-01T08:18:36;2.80;99.90
18252;DHT22;26917;52.328;20.878;2023-02-01T08:21:07;3.20;99.90
18252;DHT22;26917;52.328;20.878;2023-02-01T08:23:37;3.00;99.90
18252;DHT22;26917;52.328;20.878;2023-02-01T08:26:07;2.90;99.90
18252;DHT22;26917;52.328;20.878;2023-02-01T08:28:37;2.90;99.90
18252;DHT22;26917;52.328;20.878;2023-02-01T08:31:07;3.80;99.90
18252;DHT22;26917;52.328;20.878;2023-02-01T08:33:36;3.00;99.90
18252;DHT22;26917;52.328;20.878;2023-02-01T08:36:07;3.00;99.90
18252;DHT22;26917;52.328;20.878;2023-02-01T08:38:36;3.10;99.90
18252;DHT22;26917;52.328;20.878;2023-02-01T08:41:06;3.20;99.90
18252;DHT22;26917;52.328;20.878;2023-02-01T08:43:35;3.30;99.90
18252;DHT22;26917;52.328;20.878;2023-02-01T08:46:04;3.40;99.90
18252;DHT22;26917;52.328;20.878;2023-02-01T08:48:33;3.30;99.90
18252;DHT22;26917;52.328;20.878;2023-02-01T08:51:03;3.20;99.90
18252;DHT22;26917;52.328;20.878;2023-02-01T08:53:33;3.20;99.90
18252;DHT22;26917;52.328;20.878;2023-02-01T08:56:01;3.20;99.90
18252;DHT22;26917;52.328;20.878;2023-02-01T08:58:29;3.30;99.90
18252;DHT22;26917;52.328;20.878;2023-02-01T09:01:02;3.30;99.90
18252;DHT22;26917;52.328;20.878;2023-02-01T09:03:31;3.30;99.90
18252;DHT22;26917;52.328;20.878;2023-02-01T09:06:01;3.30;99.90
18252;DHT22;26917;52.328;20.878;2023-02-01T09:08:29;3.30;99.90
18252;DHT22;26917;52.328;20.878;2023-02-01T09:11:00;3.90;99.90
18252;DHT22;26917;52.328;20.878;2023-02-01T09:13:29;3.20;99.90
18252;DHT22;26917;52.328;20.878;2023-02-01T09:15:57;3.20;99.90
18252;DHT22;26917;52.328;20.878;2023-02-01T09:18:27;3.30;99.90
18252;DHT22;26917;52.328;20.878;2023-02-01T09:20:55;3.60;99.90
18252;DHT22;26917;52.328;20.878;2023-02-01T09:23:24;3.80;99.90
18252;DHT22;26917;52.328;20.878;2023-02-01T09:25:52;3.50;99.90
18252;DHT22;26917;52.328;20.878;2023-02-01T09:28:25;4.00;99.90
18252;DHT22;26917;52.328;20.878;2023-02-01T09:30:56;3.60;99.90
18252;DHT22;26917;52.328;20.878;2023-02-01T09:33:25;3.70;99.90
18252;DHT22;26917;52.328;20.878;2023-02-01T09:35:56;3.70;99.90
18252;DHT22;26917;52.328;20.878;2023-02-01T09:38:27;4.40;99.90
18252;DHT22;26917;52.328;20.878;2023-02-01T09:40:57;4.00;99.90
18252;DHT22;26917;52.328;20.878;2023-02-01T09:43:37;4.10;99.90
18252;DHT22;26917;52.328;20.878;2023-02-01T09:46:21;4.70;99.90
18252;DHT22;26917;52.328;20.878;2023-02-01T09:48:54;4.30;99.90
18252;DHT22;26917;52.328;20.878;2023-02-01T09:51:26;4.20;99.90
18252;DHT22;26917;52.328;20.878;2023-02-01T09:53:59;5.00;99.90
18252;DHT22;26917;52.328;20.878;2023-02-01T09:56:39;4.80;99.90
18252;DHT22;26917;52.328;20.878;2023-02-01T09:59:23;4.50;99.90
18252;DHT22;26917;52.328;20.878;2023-02-01T10:01:54;4.50;99.90
18252;DHT22;26917;52.328;20.878;2023-02-01T10:04:24;4.60;99.90
18252;DHT22;26917;52.328;20.878;2023-02-01T10:07:02;4.50;99.90
18252;DHT22;26917;52.328;20.878;2023-02-01T10:09:50;4.60;99.90
18252;DHT22;26917;52.328;20.878;2023-02-01T10:15:33;4.30;99.90
18252;DHT22;26917;52.328;20.878;2023-02-01T10:18:18;4.70;99.90
18252;DHT22;26917;52.328;20.878;2023-02-01T10:20:56;4.90;99.90
18252;DHT22;26917;52.328;20.878;2023-02-01T10:23:34;4.30;99.90
18252;DHT22;26917;52.328;20.878;2023-02-01T10:26:10;4.30;99.90
18252;DHT22;26917;52.328;20.878;2023-02-01T10:28:41;4.70;99.90
18252;DHT22;26917;52.328;20.878;2023-02-01T10:31:12;4.80;99.90
18252;DHT22;26917;52.328;20.878;2023-02-01T10:33:44;4.60;99.90
18252;DHT22;26917;52.328;20.878;2023-02-01T10:36:16;4.50;99.90
18252;DHT22;26917;52.328;20.878;2023-02-01T10:38:46;4.50;99.90
18252;DHT22;26917;52.328;20.878;2023-02-01T10:41:18;4.50;99.90
18252;DHT22;26917;52.328;20.878;2023-02-01T10:43:50;4.90;99.90
18252;DHT22;26917;52.328;20.878;2023-02-01T10:46:22;4.60;99.90
18252;DHT22;26917;52.328;20.878;2023-02-01T10:48:55;4.70;99.90
18252;DHT22;26917;52.328;20.878;2023-02-01T10:51:29;4.70;99.90
18252;DHT22;26917;52.328;20.878;2023-02-01T10:54:03;4.80;99.90
18252;DHT22;26917;52.328;20.878;2023-02-01T10:56:32;5.10;99.90
18252;DHT22;26917;52.328;20.878;2023-02-01T10:59:13;5.10;99.90
18252;DHT22;26917;52.328;20.878;2023-02-01T11:01:45;5.00;99.90
18252;DHT22;26917;52.328;20.878;2023-02-01T11:04:15;5.00;99.90
18252;DHT22;26917;52.328;20.878;2023-02-01T11:06:46;4.90;99.90
18252;DHT22;26917;52.328;20.878;2023-02-01T11:09:19;4.90;99.90
18252;DHT22;26917;52.328;20.878;2023-02-01T11:11:55;5.00;99.90
18252;DHT22;26917;52.328;20.878;2023-02-01T11:14:34;4.80;99.90
18252;DHT22;26917;52.328;20.878;2023-02-01T11:17:31;4.70;99.90
18252;DHT22;26917;52.328;20.878;2023-02-01T11:20:03;4.70;99.90
18252;DHT22;26917;52.328;20.878;2023-02-01T11:22:34;4.60;99.90
18252;DHT22;26917;52.328;20.878;2023-02-01T11:25:09;4.60;99.90
18252;DHT22;26917;52.328;20.878;2023-02-01T11:27:38;4.60;99.90
18252;DHT22;26917;52.328;20.878;2023-02-01T11:30:31;4.60;99.90
18252;DHT22;26917;52.328;20.878;2023-02-01T11:33:04;4.60;99.90
18252;DHT22;26917;52.328;20.878;2023-02-01T11:35:37;4.60;99.90
18252;DHT22;26917;52.328;20.878;2023-02-01T11:38:15;5.00;99.90
18252;DHT22;26917;52.328;20.878;2023-02-01T11:40:46;4.60;99.90
18252;DHT22;26917;52.328;20.878;2023-02-01T11:43:18;4.70;99.90
18252;DHT22;26917;52.328;20.878;2023-02-01T11:45:58;4.70;99.90
18252;DHT22;26917;52.328;20.878;2023-02-01T11:48:29;5.00;99.90
18252;DHT22;26917;52.328;20.878;2023-02-01T11:51:13;5.10;99.90
18252;DHT22;26917;52.328;20.878;2023-02-01T11:54:08;5.00;99.90
18252;DHT22;26917;52.328;20.878;2023-02-01T11:56:44;5.00;99.90
18252;DHT22;26917;52.328;20.878;2023-02-01T11:59:29;5.10;99.90
18252;DHT22;26917;52.328;20.878;2023-02-01T12:02:18;5.00;99.90
18252;DHT22;26917;52.328;20.878;2023-02-01T12:05:06;5.00;99.90
18252;DHT22;26917;52.328;20.878;2023-02-01T12:07:54;4.80;99.90
18252;DHT22;26917;52.328;20.878;2023-02-01T12:10:34;4.50;99.90
18252;DHT22;26917;52.328;20.878;2023-02-01T12:13:16;4.40;99.90
18252;DHT22;26917;52.328;20.878;2023-02-01T12:15:56;4.30;99.90
18252;DHT22;26917;52.328;20.878;2023-02-01T12:18:58;4.30;99.90
18252;DHT22;26917;52.328;20.878;2023-02-01T12:21:45;4.20;99.90
18252;DHT22;26917;52.328;20.878;2023-02-01T12:24:37;4.20;99.90
18252;DHT22;26917;52.328;20.878;2023-02-01T12:27:24;4.00;99.90
18252;DHT22;26917;52.328;20.878;2023-02-01T12:30:28;4.00;99.90
18252;DHT22;26917;52.328;20.878;2023-02-01T12:33:07;4.10;99.90
18252;DHT22;26917;52.328;20.878;2023-02-01T12:35:57;4.40;99.90
18252;DHT22;26917;52.328;20.878;2023-02-01T12:38:42;4.10;99.90
18252;DHT22;26917;52.328;20.878;2023-02-01T12:41:40;4.20;99.90
18252;DHT22;26917;52.328;20.878;2023-02-01T12:44:17;4.20;99.90
18252;DHT22;26917;52.328;20.878;2023-02-01T12:46:52;4.30;99.90
18252;DHT22;26917;52.328;20.878;2023-02-01T12:49:27;4.30;99.90
18252;DHT22;26917;52.328;20.878;2023-02-01T12:52:02;4.40;99.90
18252;DHT22;26917;52.328;20.878;2023-02-01T12:54:37;4.30;99.90
18252;DHT22;26917;52.328;20.878;2023-02-01T12:57:15;4.40;99.90
18252;DHT22;26917;52.328;20.878;2023-02-01T13:00:01;4.70;99.90
18252;DHT22;26917;52.328;20.878;2023-02-01T13:02:37;4.60;99.90
18252;DHT22;26917;52.328;20.878;2023-02-01T13:05:16;4.70;99.90
18252;DHT22;26917;52.328;20.878;2023-02-01T13:07:49;4.80;99.90
18252;DHT22;26917;52.328;20.878;2023-02-01T13:10:26;4.90;99.90
18252;DHT22;26917;52.328;20.878;2023-02-01T13:13:04;5.20;99.90
18252;DHT22;26917;52.328;20.878;2023-02-01T13:15:40;5.00;99.90
18252;DHT22;26917;52.328;20.878;2023-02-01T13:18:14;5.00;99.90
18252;DHT22;26917;52.328;20.878;2023-02-01T13:20:49;5.20;99.90
18252;DHT22;26917;52.328;20.878;2023-02-01T13:23:26;5.10;99.90
18252;DHT22;26917;52.328;20.878;2023-02-01T13:25:57;5.10;99.90
18252;DHT22;26917;52.328;20.878;2023-02-01T13:28:27;5.20;99.90
18252;DHT22;26917;52.328;20.878;2023-02-01T13:31:16;5.10;99.90
18252;DHT22;26917;52.328;20.878;2023-02-01T13:34:10;5.00;99.90
18252;DHT22;26917;52.328;20.878;2023-02-01T13:36:59;4.90;99.90
18252;DHT22;26917;52.328;20.878;2023-02-01T13:39:45;4.90;99.90
18252;DHT22;26917;52.328;20.878;2023-02-01T13:42:21;4.90;99.90
18252;DHT22;26917;52.328;20.878;2023-02-01T13:44:52;5.00;99.90
18252;DHT22;26917;52.328;20.878;2023-02-01T13:47:27;4.80;99.90
18252;DHT22;26917;52.328;20.878;2023-02-01T13:49:58;4.80;99.90
18252;DHT22;26917;52.328;20.878;2023-02-01T13:52:37;4.80;99.90
18252;DHT22;26917;52.328;20.878;2023-02-01T13:55:31;4.70;99.90
18252;DHT22;26917;52.328;20.878;2023-02-01T13:58:06;4.60;99.90
18252;DHT22;26917;52.328;20.878;2023-02-01T14:00:38;4.60;99.90
18252;DHT22;26917;52.328;20.878;2023-02-01T14:06:05;4.60;99.90
18252;DHT22;26917;52.328;20.878;2023-02-01T14:08:46;4.50;99.90
18252;DHT22;26917;52.328;20.878;2023-02-01T14:11:35;4.40;99.90
18252;DHT22;26917;52.328;20.878;2023-02-01T14:17:39;4.40;99.90
18252;DHT22;26917;52.328;20.878;2023-02-01T14:23:27;4.40;99.90
18252;DHT22;26917;52.328;20.878;2023-02-01T14:26:04;4.50;99.90
18252;DHT22;26917;52.328;20.878;2023-02-01T14:28:38;4.70;99.90
18252;DHT22;26917;52.328;20.878;2023-02-01T14:31:18;4.60;99.90
18252;DHT22;26917;52.328;20.878;2023-02-01T14:33:47;4.40;99.90
18252;DHT22;26917;52.328;20.878;2023-02-01T14:36:15;4.90;99.90
18252;DHT22;26917;52.328;20.878;2023-02-01T14:38:50;4.50;99.90
18252;DHT22;26917;52.328;20.878;2023-02-01T14:41:28;4.40;99.90
18252;DHT22;26917;52.328;20.878;2023-02-01T14:44:26;4.60;99.90
18252;DHT22;26917;52.328;20.878;2023-02-01T14:47:33;4.50;99.90
18252;DHT22;26917;52.328;20.878;2023-02-01T14:50:29;4.60;99.90
18252;DHT22;26917;52.328;20.878;2023-02-01T14:53:15;4.60;99.90
18252;DHT22;26917;52.328;20.878;2023-02-01T14:55:49;4.60;99.90
18252;DHT22;26917;52.328;20.878;2023-02-01T14:58:25;5.00;99.90
18252;DHT22;26917;52.328;20.878;2023-02-01T15:00:57;4.60;99.90
18252;DHT22;26917;52.328;20.878;2023-02-01T15:03:38;4.60;99.90
18252;DHT22;26917;52.328;20.878;2023-02-01T15:06:21;4.60;99.90
18252;DHT22;26917;52.328;20.878;2023-02-01T15:08:54;4.90;99.90
18252;DHT22;26917;52.328;20.878;2023-02-01T15:11:23;4.70;99.90
18252;DHT22;26917;52.328;20.878;2023-02-01T15:13:52;4.40;99.90
18252;DHT22;26917;52.328;20.878;2023-02-01T15:16:24;4.80;99.90
18252;DHT22;26917;52.328;20.878;2023-02-01T15:19:10;3.90;99.90
18252;DHT22;26917;52.328;20.878;2023-02-01T15:21:46;4.80;99.90
18252;DHT22;26917;52.328;20.878;2023-02-01T15:24:20;4.50;99.90
18252;DHT22;26917;52.328;20.878;2023-02-01T15:26:53;4.40;99.90
18252;DHT22;26917;52.328;20.878;2023-02-01T15:29:23;4.50;99.90
18252;DHT22;26917;52.328;20.878;2023-02-01T15:31:54;4.70;99.90
18252;DHT22;26917;52.328;20.878;2023-02-01T15:34:44;4.50;99.90
18252;DHT22;26917;52.328;20.878;2023-02-01T15:37:14;4.50;99.90
18252;DHT22;26917;52.328;20.878;2023-02-01T15:40:02;4.50;99.90
18252;DHT22;26917;52.328;20.878;2023-02-01T15:42:31;4.40;99.90
18252;DHT22;26917;52.328;20.878;2023-02-01T15:44:59;4.40;99.90
18252;DHT22;26917;52.328;20.878;2023-02-01T15:47:30;4.40;99.90
18252;DHT22;26917;52.328;20.878;2023-02-01T15:50:01;4.40;99.90
18252;DHT22;26917;52.328;20.878;2023-02-01T15:52:35;4.40;99.90
18252;DHT22;26917;52.328;20.878;2023-02-01T15:55:06;4.70;99.90
18252;DHT22;26917;52.328;20.878;2023-02-01T15:57:39;4.30;99.90
18252;DHT22;26917;52.328;20.878;2023-02-01T16:00:21;4.30;99.90
18252;DHT22;26917;52.328;20.878;2023-02-01T16:02:54;4.30;99.90
18252;DHT22;26917;52.328;20.878;2023-02-01T16:05:32;4.20;99.90
18252;DHT22;26917;52.328;20.878;2023-02-01T16:08:04;4.20;99.90
18252;DHT22;26917;52.328;20.878;2023-02-01T16:10:40;4.20;99.90
18252;DHT22;26917;52.328;20.878;2023-02-01T16:13:09;5.00;99.90
18252;DHT22;26917;52.328;20.878;2023-02-01T16:15:38;4.40;99.90
18252;DHT22;26917;52.328;20.878;2023-02-01T16:18:07;4.20;99.90
18252;DHT22;26917;52.328;20.878;2023-02-01T16:20:39;4.20;99.90
18252;DHT22;26917;52.328;20.878;2023-02-01T16:23:08;4.20;99.90
18252;DHT22;26917;52.328;20.878;2023-02-01T16:25:39;4.20;99.90
18252;DHT22;26917;52.328;20.878;2023-02-01T16:28:08;4.60;99.90
18252;DHT22;26917;52.328;20.878;2023-02-01T16:30:37;4.20;99.90
18252;DHT22;26917;52.328;20.878;2023-02-01T16:33:05;4.40;99.90